createdAt,value
2019-06-20T00:00:59.795Z,17.10
2019-06-20T00:03:35.419Z,17.10
2019-06-20T00:06:10.792Z,17.10
2019-06-20T00:08:46.378Z,17.10
2019-06-20T00:11:21.887Z,17.20
2019-06-20T00:13:57.309Z,17.20
2019-06-20T00:16:32.654Z,17.20
2019-06-20T00:19:07.970Z,17.10
2019-06-20T00:21:43.324Z,17.10
2019-06-20T00:24:18.890Z,17.10
2019-06-20T00:26:54.196Z,17.10
2019-06-20T00:29:29.617Z,17.20
2019-06-20T00:32:05.025Z,17.20
2019-06-20T00:34:40.439Z,17.20
2019-06-20T00:37:15.802Z,17.20
2019-06-20T00:39:51.668Z,17.20
2019-06-20T00:42:27.003Z,17.20
2019-06-20T00:45:02.480Z,17.20
2019-06-20T00:47:38.603Z,17.20
2019-06-20T00:50:14.133Z,17.20
2019-06-20T00:52:49.602Z,17.20
2019-06-20T00:55:25.098Z,17.10
2019-06-20T00:58:00.545Z,17.10
2019-06-20T01:00:35.946Z,17.10
2019-06-20T01:03:11.350Z,17.20
2019-06-20T01:05:46.787Z,17.20
2019-06-20T01:08:22.159Z,17.20
2019-06-20T01:10:57.607Z,17.20
2019-06-20T01:13:34.387Z,17.20
2019-06-20T01:16:10.009Z,17.20
2019-06-20T01:18:45.385Z,17.20
2019-06-20T01:21:20.801Z,17.20
2019-06-20T01:23:56.293Z,17.20
2019-06-20T01:26:31.727Z,17.20
2019-06-20T01:29:07.081Z,17.20
2019-06-20T01:31:42.453Z,17.20
2019-06-20T01:34:17.862Z,17.20
2019-06-20T01:36:53.319Z,17.20
2019-06-20T01:39:28.714Z,17.20
2019-06-20T01:42:04.017Z,17.10
2019-06-20T01:44:39.431Z,17.20
2019-06-20T01:47:14.818Z,17.20
2019-06-20T01:49:50.233Z,17.20
2019-06-20T01:52:25.751Z,17.20
2019-06-20T01:55:01.187Z,17.20
2019-06-20T01:57:37.636Z,17.10
2019-06-20T02:00:14.783Z,17.10
2019-06-20T02:02:50.221Z,17.10
2019-06-20T02:05:25.596Z,17.10
2019-06-20T02:08:01.239Z,17.00
2019-06-20T02:10:36.619Z,17.10
2019-06-20T02:13:12.456Z,17.10
2019-06-20T02:15:47.830Z,17.10
2019-06-20T02:18:23.245Z,17.10
2019-06-20T02:20:59.235Z,17.10
2019-06-20T02:23:34.640Z,17.00
2019-06-20T02:26:09.964Z,17.00
2019-06-20T02:28:45.362Z,17.00
2019-06-20T02:31:20.988Z,17.00
2019-06-20T02:33:56.244Z,17.00
2019-06-20T02:36:31.604Z,17.00
2019-06-20T02:39:08.303Z,17.00
2019-06-20T02:41:43.730Z,17.10
2019-06-20T02:44:29.790Z,17.10
2019-06-20T02:46:56.131Z,17.10
2019-06-20T02:49:31.737Z,17.10
2019-06-20T02:52:07.369Z,17.00
2019-06-20T02:54:42.771Z,17.00
2019-06-20T02:57:18.153Z,17.00
2019-06-20T02:59:54.725Z,16.90
2019-06-20T03:02:31.713Z,16.90
2019-06-20T03:05:08.659Z,16.90
2019-06-20T03:07:44.039Z,17.00
2019-06-20T03:10:19.535Z,16.90
2019-06-20T03:12:54.940Z,17.00
2019-06-20T03:15:30.417Z,16.90
2019-06-20T03:18:05.877Z,16.90
2019-06-20T03:20:41.267Z,16.90
2019-06-20T03:23:16.597Z,16.90
2019-06-20T03:25:52.097Z,17.00
2019-06-20T03:28:27.435Z,17.00
2019-06-20T03:31:03.063Z,16.90
2019-06-20T03:33:38.352Z,16.90
2019-06-20T03:36:13.752Z,16.90
2019-06-20T03:38:49.317Z,16.80
2019-06-20T03:41:24.729Z,16.80
2019-06-20T03:44:00.033Z,16.80
2019-06-20T03:46:35.593Z,16.80
2019-06-20T03:49:10.987Z,16.70
2019-06-20T03:51:46.372Z,16.70
2019-06-20T03:54:24.754Z,16.70
2019-06-20T03:57:00.190Z,16.60
2019-06-20T03:59:35.735Z,16.60
2019-06-20T04:02:11.196Z,16.60
2019-06-20T04:04:46.589Z,16.50
2019-06-20T04:07:22.143Z,16.50
2019-06-20T04:09:57.580Z,16.40
2019-06-20T04:12:32.999Z,16.40
2019-06-20T04:15:18.673Z,16.40
2019-06-20T04:17:45.583Z,16.30
2019-06-20T04:20:20.921Z,16.30
2019-06-20T04:22:56.445Z,16.20
2019-06-20T04:25:32.049Z,16.20
2019-06-20T04:28:07.449Z,16.20
2019-06-20T04:30:42.829Z,16.20
2019-06-20T04:33:18.281Z,16.20
2019-06-20T04:35:53.689Z,16.30
2019-06-20T04:38:29.189Z,16.20
2019-06-20T04:41:04.613Z,16.10
2019-06-20T04:43:40.191Z,16.10
2019-06-20T04:46:33.057Z,16.10
2019-06-20T04:49:08.423Z,16.10
2019-06-20T04:51:43.821Z,16.20
2019-06-20T04:54:19.390Z,16.20
2019-06-20T04:56:54.881Z,16.10
2019-06-20T04:59:30.468Z,16.20
2019-06-20T05:02:06.010Z,16.30
2019-06-20T05:04:41.388Z,16.50
2019-06-20T05:07:19.427Z,16.60
2019-06-20T05:09:55.110Z,16.70
2019-06-20T05:12:30.498Z,16.70
2019-06-20T05:15:06.559Z,16.70
2019-06-20T05:17:41.842Z,16.80
2019-06-20T05:20:17.454Z,16.80
2019-06-20T05:22:52.757Z,16.70
2019-06-20T05:25:28.120Z,16.70
2019-06-20T05:28:03.506Z,16.70
2019-06-20T05:30:38.834Z,16.60
2019-06-20T05:33:14.214Z,16.70
2019-06-20T05:35:49.678Z,16.60
2019-06-20T05:38:25.116Z,16.60
2019-06-20T05:41:00.544Z,16.50
2019-06-20T05:43:35.967Z,16.40
2019-06-20T05:46:11.462Z,16.50
2019-06-20T05:48:46.867Z,16.60
2019-06-20T05:51:22.244Z,16.70
2019-06-20T05:53:57.648Z,16.80
2019-06-20T05:56:33.279Z,16.70
2019-06-20T05:59:08.654Z,16.80
2019-06-20T06:01:44.235Z,16.80
2019-06-20T06:04:19.577Z,16.80
2019-06-20T06:06:55.038Z,16.80
2019-06-20T06:09:30.688Z,16.80
2019-06-20T06:12:06.031Z,16.90
2019-06-20T06:14:41.623Z,17.00
2019-06-20T06:17:17.035Z,17.20
2019-06-20T06:19:52.413Z,17.20
2019-06-20T06:22:27.888Z,17.30
2019-06-20T06:25:03.299Z,17.20
2019-06-20T06:27:39.284Z,17.20
2019-06-20T06:30:16.083Z,17.20
2019-06-20T06:32:51.480Z,17.30
2019-06-20T06:35:26.964Z,17.30
2019-06-20T06:38:02.403Z,17.30
2019-06-20T06:40:37.772Z,17.30
2019-06-20T06:43:13.354Z,17.30
2019-06-20T06:45:48.725Z,17.50
2019-06-20T06:48:24.314Z,17.60
2019-06-20T06:50:59.786Z,17.80
2019-06-20T06:53:35.207Z,17.90
2019-06-20T06:56:10.752Z,18.00
2019-06-20T06:58:46.188Z,18.00
2019-06-20T07:01:21.614Z,18.00
2019-06-20T07:03:56.940Z,17.90
2019-06-20T07:06:32.205Z,17.90
2019-06-20T07:09:08.872Z,17.90
2019-06-20T07:11:44.346Z,17.80
2019-06-20T07:14:19.828Z,17.70
2019-06-20T07:17:00.395Z,17.70
2019-06-20T07:19:32.263Z,17.80
2019-06-20T07:22:07.667Z,17.80
2019-06-20T07:24:43.123Z,17.80
2019-06-20T07:27:18.617Z,17.70
2019-06-20T07:29:54.086Z,17.60
2019-06-20T07:32:29.565Z,17.60
2019-06-20T07:35:05.617Z,17.70
2019-06-20T07:37:41.060Z,17.70
2019-06-20T07:40:17.684Z,17.60
2019-06-20T07:42:53.087Z,17.60
2019-06-20T07:45:29.307Z,17.60
2019-06-20T07:48:04.879Z,17.70
2019-06-20T07:50:40.290Z,18.10
2019-06-20T07:53:15.815Z,18.40
2019-06-20T07:55:51.247Z,18.50
2019-06-20T07:58:26.631Z,18.50
2019-06-20T08:01:02.438Z,18.60
2019-06-20T08:03:37.813Z,18.60
2019-06-20T08:06:13.282Z,18.60
2019-06-20T08:08:48.766Z,18.60
2019-06-20T08:11:24.276Z,18.40
2019-06-20T08:13:59.684Z,18.40
2019-06-20T08:16:35.207Z,18.50
2019-06-20T08:19:10.663Z,18.40
2019-06-20T08:21:46.130Z,18.50
2019-06-20T08:24:21.531Z,18.80
2019-06-20T08:26:58.685Z,18.80
2019-06-20T08:29:33.985Z,18.90
2019-06-20T08:32:09.464Z,19.20
2019-06-20T08:34:44.858Z,19.30
2019-06-20T08:37:20.296Z,19.10
2019-06-20T08:39:56.809Z,19.00
2019-06-20T08:42:32.760Z,18.90
2019-06-20T08:45:09.559Z,19.10
2019-06-20T08:47:45.143Z,19.10
2019-06-20T08:50:20.600Z,19.00
2019-06-20T08:52:57.576Z,19.10
2019-06-20T08:55:33.271Z,19.00
2019-06-20T08:58:08.637Z,19.00
2019-06-20T09:00:44.339Z,18.90
2019-06-20T09:03:19.881Z,18.90
2019-06-20T09:05:56.619Z,18.80
2019-06-20T09:08:32.623Z,19.10
2019-06-20T09:11:07.985Z,19.40
2019-06-20T09:13:43.505Z,19.40
2019-06-20T09:16:24.525Z,19.40
2019-06-20T09:18:56.730Z,19.60
2019-06-20T09:21:32.208Z,19.90
2019-06-20T09:24:07.634Z,20.10
2019-06-20T09:26:42.917Z,19.80
2019-06-20T09:29:18.352Z,19.50
2019-06-20T09:31:55.648Z,19.30
2019-06-20T09:34:31.191Z,19.20
2019-06-20T09:37:06.583Z,19.20
2019-06-20T09:39:41.994Z,19.10
2019-06-20T09:42:17.426Z,19.00
2019-06-20T09:44:54.072Z,18.90
2019-06-20T09:47:29.477Z,18.80
2019-06-20T09:50:06.911Z,19.10
2019-06-20T09:52:42.593Z,19.40
2019-06-20T09:55:18.280Z,19.60
2019-06-20T09:57:53.824Z,19.70
2019-06-20T10:00:29.919Z,19.70
2019-06-20T10:03:05.895Z,19.70
2019-06-20T10:05:43.008Z,19.70
2019-06-20T10:08:18.415Z,19.70
2019-06-20T10:10:54.169Z,19.50
2019-06-20T10:13:32.517Z,19.30
2019-06-20T10:16:06.839Z,19.30
2019-06-20T10:18:42.241Z,19.10
2019-06-20T10:21:17.906Z,19.00
2019-06-20T10:23:53.964Z,19.00
2019-06-20T10:26:29.399Z,19.10
2019-06-20T10:29:04.937Z,19.30
2019-06-20T10:31:40.466Z,19.30
2019-06-20T10:34:15.900Z,19.40
2019-06-20T10:36:52.408Z,19.70
2019-06-20T10:39:27.889Z,19.90
2019-06-20T10:42:03.350Z,20.00
2019-06-20T10:44:38.728Z,20.00
2019-06-20T10:47:14.224Z,19.80
2019-06-20T10:49:50.398Z,19.70
2019-06-20T10:52:25.863Z,19.60
2019-06-20T10:55:01.356Z,19.60
2019-06-20T10:57:36.770Z,19.60
2019-06-20T11:00:29.307Z,19.50
2019-06-20T11:02:51.375Z,19.40
2019-06-20T11:05:26.767Z,19.20
2019-06-20T11:08:02.154Z,18.90
2019-06-20T11:10:39.817Z,18.80
2019-06-20T11:13:14.827Z,18.60
2019-06-20T11:15:50.238Z,18.50
2019-06-20T11:18:25.666Z,18.40
2019-06-20T11:21:00.996Z,18.40
2019-06-20T11:23:37.918Z,18.30
2019-06-20T11:26:13.929Z,18.20
2019-06-20T11:28:49.554Z,18.20
2019-06-20T11:31:25.112Z,18.20
2019-06-20T11:34:00.594Z,18.30
2019-06-20T11:36:37.077Z,18.30
2019-06-20T11:39:13.232Z,18.20
2019-06-20T11:41:48.695Z,18.30
2019-06-20T11:44:24.250Z,18.30
2019-06-20T11:46:59.730Z,18.40
2019-06-20T11:49:36.351Z,18.60
2019-06-20T11:52:12.276Z,19.00
2019-06-20T11:54:47.728Z,19.00
2019-06-20T11:57:23.191Z,19.10
2019-06-20T11:59:58.920Z,19.20
2019-06-20T12:02:34.649Z,19.50
2019-06-20T12:05:11.385Z,19.70
2019-06-20T12:07:47.963Z,19.70
2019-06-20T12:10:25.928Z,19.80
2019-06-20T12:13:01.446Z,19.90
2019-06-20T12:15:38.095Z,20.10
2019-06-20T12:18:14.096Z,20.20
2019-06-20T12:20:49.802Z,20.40
2019-06-20T12:23:25.247Z,20.30
2019-06-20T12:26:00.783Z,20.30
2019-06-20T12:28:39.047Z,20.30
2019-06-20T12:31:19.662Z,20.60
2019-06-20T12:33:52.147Z,20.70
2019-06-20T12:36:27.777Z,20.70
2019-06-20T12:39:03.711Z,20.80
2019-06-20T12:41:41.234Z,20.60
2019-06-20T12:44:17.913Z,20.70
2019-06-20T12:46:53.353Z,20.50
2019-06-20T12:49:29.006Z,20.50
2019-06-20T12:52:04.448Z,20.90
2019-06-20T12:54:41.385Z,21.00
2019-06-20T12:57:17.246Z,20.70
2019-06-20T12:59:52.736Z,20.70
2019-06-20T13:02:30.993Z,20.80
2019-06-20T13:05:06.657Z,20.80
2019-06-20T13:07:46.480Z,21.00
2019-06-20T13:10:22.554Z,20.90
2019-06-20T13:12:58.207Z,20.80
2019-06-20T13:15:33.686Z,20.70
2019-06-20T13:18:09.258Z,20.60
2019-06-20T13:20:44.659Z,20.40
2019-06-20T13:23:21.126Z,20.20
2019-06-20T13:25:56.614Z,20.40
2019-06-20T13:28:32.095Z,20.40
2019-06-20T13:31:07.488Z,20.20
2019-06-20T13:33:42.911Z,20.10
2019-06-20T13:36:18.243Z,20.20
2019-06-20T13:38:53.781Z,20.50
2019-06-20T13:41:29.242Z,20.90
2019-06-20T13:44:05.121Z,21.20
2019-06-20T13:46:41.802Z,21.20
2019-06-20T13:49:17.543Z,21.50
2019-06-20T13:51:53.091Z,21.60
2019-06-20T13:54:28.447Z,21.90
2019-06-20T13:57:03.800Z,22.10
2019-06-20T13:59:41.652Z,22.10
2019-06-20T14:02:17.337Z,22.00
2019-06-20T14:04:52.781Z,21.90
2019-06-20T14:07:28.203Z,21.70
2019-06-20T14:10:03.972Z,21.80
2019-06-20T14:12:58.394Z,21.90
2019-06-20T14:15:33.764Z,21.90
2019-06-20T14:18:09.396Z,22.00
2019-06-20T14:20:44.962Z,22.20
2019-06-20T14:23:20.474Z,22.40
2019-06-20T14:25:56.311Z,22.10
2019-06-20T14:28:31.717Z,21.80
2019-06-20T14:31:10.032Z,21.60
2019-06-20T14:33:46.142Z,21.30
2019-06-20T14:36:21.730Z,21.00
2019-06-20T14:38:58.221Z,20.80
2019-06-20T14:41:33.846Z,20.60
2019-06-20T14:44:09.268Z,20.60
2019-06-20T14:46:44.740Z,20.70
2019-06-20T14:49:20.159Z,21.10
2019-06-20T14:51:55.673Z,21.40
2019-06-20T14:54:31.134Z,21.70
2019-06-20T14:57:06.576Z,21.90
2019-06-20T14:59:43.156Z,22.00
2019-06-20T15:02:19.061Z,22.00
2019-06-20T15:04:55.035Z,22.00
2019-06-20T15:07:30.418Z,22.10
2019-06-20T15:10:06.478Z,22.30
2019-06-20T15:12:41.996Z,22.20
2019-06-20T15:15:17.850Z,21.90
2019-06-20T15:17:55.658Z,21.60
2019-06-20T15:20:30.736Z,21.50
2019-06-20T15:23:06.203Z,21.70
2019-06-20T15:25:41.743Z,21.90
2019-06-20T15:28:17.341Z,21.70
2019-06-20T15:30:52.837Z,21.50
2019-06-20T15:33:28.170Z,21.40
2019-06-20T15:36:03.596Z,21.40
2019-06-20T15:38:39.031Z,21.40
2019-06-20T15:41:15.464Z,21.30
2019-06-20T15:43:51.753Z,21.30
2019-06-20T15:46:30.507Z,21.40
2019-06-20T15:49:15.716Z,21.40
2019-06-20T15:51:42.457Z,21.30
2019-06-20T15:54:17.952Z,21.20
2019-06-20T15:56:53.548Z,21.10
2019-06-20T15:59:28.977Z,21.10
2019-06-20T16:02:04.615Z,21.00
2019-06-20T16:04:40.034Z,21.20
2019-06-20T16:07:15.635Z,21.20
2019-06-20T16:09:51.110Z,21.20
2019-06-20T16:12:27.745Z,21.10
2019-06-20T16:15:03.205Z,20.90
2019-06-20T16:17:39.827Z,21.00
2019-06-20T16:20:15.247Z,21.20
2019-06-20T16:22:50.833Z,21.20
2019-06-20T16:25:26.285Z,21.20
2019-06-20T16:28:01.699Z,21.10
2019-06-20T16:30:37.274Z,21.10
2019-06-20T16:33:24.827Z,21.20
2019-06-20T16:35:50.699Z,21.20
2019-06-20T16:38:26.253Z,21.20
2019-06-20T16:41:01.770Z,21.20
2019-06-20T16:43:37.230Z,21.00
2019-06-20T16:46:12.713Z,20.90
2019-06-20T16:48:48.199Z,20.70
2019-06-20T16:51:23.634Z,20.70
2019-06-20T16:53:59.041Z,20.70
2019-06-20T16:56:34.465Z,20.50
2019-06-20T16:59:14.167Z,20.50
2019-06-20T17:01:47.772Z,20.40
2019-06-20T17:04:23.193Z,20.20
2019-06-20T17:06:58.683Z,20.10
2019-06-20T17:09:35.109Z,20.00
2019-06-20T17:12:11.287Z,19.90
2019-06-20T17:14:47.070Z,19.80
2019-06-20T17:17:23.474Z,19.70
2019-06-20T17:19:58.857Z,19.60
2019-06-20T17:22:35.281Z,19.60
2019-06-20T17:25:11.198Z,19.60
2019-06-20T17:27:46.667Z,19.60
2019-06-20T17:30:22.605Z,19.60
2019-06-20T17:32:58.133Z,19.70
2019-06-20T17:35:33.583Z,19.70
2019-06-20T17:38:09.114Z,19.70
2019-06-20T17:40:44.627Z,19.80
2019-06-20T17:43:20.068Z,19.80
2019-06-20T17:45:55.485Z,19.70
2019-06-20T17:48:30.957Z,19.80
2019-06-20T17:51:06.390Z,19.80
2019-06-20T17:53:41.958Z,19.60
2019-06-20T17:56:18.132Z,19.70
2019-06-20T17:58:53.625Z,19.60
2019-06-20T18:01:29.099Z,19.60
2019-06-20T18:04:13.329Z,19.50
2019-06-20T18:06:41.550Z,19.40
2019-06-20T18:09:17.197Z,19.20
2019-06-20T18:11:52.631Z,19.00
2019-06-20T18:14:29.089Z,19.00
2019-06-20T18:17:04.504Z,19.10
2019-06-20T18:19:39.957Z,19.10
2019-06-20T18:22:15.475Z,19.10
2019-06-20T18:24:50.919Z,19.20
2019-06-20T18:27:26.338Z,19.20
2019-06-20T18:30:02.012Z,19.30
2019-06-20T18:32:37.364Z,19.30
2019-06-20T18:35:12.876Z,19.40
2019-06-20T18:37:48.340Z,19.30
2019-06-20T18:40:23.842Z,19.20
2019-06-20T18:42:59.453Z,19.20
2019-06-20T18:45:34.929Z,19.10
2019-06-20T18:48:15.001Z,19.00
2019-06-20T18:50:50.425Z,19.00
2019-06-20T18:53:25.777Z,18.90
2019-06-20T18:56:01.458Z,18.90
2019-06-20T18:58:37.906Z,18.90
2019-06-20T19:01:13.353Z,18.80
2019-06-20T19:03:49.042Z,18.80
2019-06-20T19:06:35.367Z,18.80
2019-06-20T19:09:01.628Z,18.70
2019-06-20T19:11:38.812Z,18.70
2019-06-20T19:14:15.944Z,18.50
2019-06-20T19:16:51.367Z,18.50
2019-06-20T19:19:26.776Z,18.40
2019-06-20T19:22:02.266Z,18.40
2019-06-20T19:24:37.797Z,18.30
2019-06-20T19:27:13.258Z,18.30
2019-06-20T19:29:49.745Z,18.30
2019-06-20T19:32:25.420Z,18.20
2019-06-20T19:35:02.721Z,18.20
2019-06-20T19:37:38.147Z,18.00
2019-06-20T19:40:14.866Z,18.10
2019-06-20T19:42:50.184Z,18.00
2019-06-20T19:45:28.725Z,18.00
2019-06-20T19:48:04.229Z,17.90
2019-06-20T19:50:39.851Z,17.90
2019-06-20T19:53:15.381Z,17.90
2019-06-20T19:55:50.911Z,17.80
2019-06-20T19:58:27.677Z,17.80
2019-06-20T20:01:05.945Z,17.80
2019-06-20T20:03:41.421Z,17.80
2019-06-20T20:06:17.850Z,17.70
2019-06-20T20:08:53.269Z,17.60
2019-06-20T20:11:28.731Z,17.50
2019-06-20T20:14:04.164Z,17.50
2019-06-20T20:16:39.677Z,17.50
2019-06-20T20:19:15.186Z,17.60
2019-06-20T20:21:50.490Z,17.60
2019-06-20T20:24:25.995Z,17.60
2019-06-20T20:27:05.659Z,17.60
2019-06-20T20:29:41.108Z,17.60
2019-06-20T20:32:17.662Z,17.50
2019-06-20T20:34:53.103Z,17.50
2019-06-20T20:37:28.466Z,17.40
2019-06-20T20:40:04.068Z,17.40
2019-06-20T20:42:40.162Z,17.40
2019-06-20T20:45:15.746Z,17.30
2019-06-20T20:47:51.226Z,17.20
2019-06-20T20:50:26.658Z,17.20
2019-06-20T20:53:01.956Z,17.20
2019-06-20T20:55:37.636Z,17.20
2019-06-20T20:58:13.091Z,17.10
2019-06-20T21:00:55.977Z,17.10
2019-06-20T21:03:31.439Z,17.10
2019-06-20T21:06:08.739Z,17.00
2019-06-20T21:08:44.109Z,17.00
2019-06-20T21:11:19.626Z,17.00
2019-06-20T21:13:57.783Z,17.00
2019-06-20T21:16:33.266Z,16.90
2019-06-20T21:19:08.867Z,16.80
2019-06-20T21:21:44.305Z,16.70
2019-06-20T21:24:22.207Z,16.70
2019-06-20T21:26:57.953Z,16.70
2019-06-20T21:29:33.412Z,16.60
2019-06-20T21:32:09.888Z,16.60
2019-06-20T21:34:45.293Z,16.50
2019-06-20T21:37:20.741Z,16.40
2019-06-20T21:39:56.493Z,16.40
2019-06-20T21:42:31.875Z,16.30
2019-06-20T21:45:09.556Z,16.20
2019-06-20T21:47:44.988Z,16.20
2019-06-20T21:50:22.007Z,16.10
2019-06-20T21:52:57.606Z,16.10
2019-06-20T21:55:35.474Z,16.00
2019-06-20T21:58:10.903Z,15.90
2019-06-20T22:00:49.918Z,15.90
2019-06-20T22:03:26.961Z,15.90
2019-06-20T22:06:02.578Z,15.90
2019-06-20T22:08:37.955Z,15.80
2019-06-20T22:11:14.881Z,15.80
2019-06-20T22:13:50.304Z,15.80
2019-06-20T22:16:28.778Z,15.60
2019-06-20T22:19:04.562Z,15.60
2019-06-20T22:21:39.949Z,15.60
2019-06-20T22:24:15.485Z,15.50
2019-06-20T22:26:50.890Z,15.50
2019-06-20T22:29:26.405Z,15.50
2019-06-20T22:32:02.029Z,15.40
2019-06-20T22:34:37.507Z,15.40
2019-06-20T22:37:15.148Z,15.40
2019-06-20T22:39:50.623Z,15.40
2019-06-20T22:42:25.955Z,15.30
2019-06-20T22:45:06.730Z,15.30
2019-06-20T22:47:42.812Z,15.20
2019-06-20T22:50:18.735Z,15.20
2019-06-20T22:52:56.409Z,15.10
2019-06-20T22:55:31.891Z,15.00
2019-06-20T22:58:09.539Z,15.00
2019-06-20T23:00:45.907Z,15.00
2019-06-20T23:03:21.453Z,14.90
2019-06-20T23:05:56.802Z,14.90
2019-06-20T23:08:32.188Z,14.90
2019-06-20T23:11:07.673Z,14.90
2019-06-20T23:13:43.046Z,14.80
2019-06-20T23:16:18.458Z,14.70
2019-06-20T23:18:53.994Z,14.60
2019-06-20T23:21:29.306Z,14.60
2019-06-20T23:24:04.710Z,14.50
2019-06-20T23:26:41.190Z,14.60
2019-06-20T23:29:25.505Z,14.50
2019-06-20T23:32:01.065Z,14.50
2019-06-20T23:34:36.481Z,14.30
2019-06-20T23:37:13.211Z,14.30
2019-06-20T23:39:48.695Z,14.30
2019-06-20T23:42:24.349Z,14.20
2019-06-20T23:44:59.720Z,14.20
2019-06-20T23:47:35.113Z,14.10
2019-06-20T23:50:18.451Z,14.10
2019-06-20T23:53:02.021Z,14.10
2019-06-20T23:55:37.333Z,14.00
2019-06-20T23:58:12.771Z,14.10
